Maynard, Minnesota
Current Conditions -  °F | °C
As of 10:32 PM on Wednesday 26 Nov 2014 (Local Time) from KGDB Reporting Station
Clear Clear  
Wind Chill: -19°   Ceiling: Unl
Heat Index:   Visibility: 10mi
Dew Point: -6°   Wind: 14mph
Humidity: 78%   Direction: 310°NW
Pressure: 30.48"   Gusts: NA
Location:  44.91°N, 95.47°W
Report Text: KGDB 270432Z AUTO 31012KT 10SM CLR M18/M21 A3048 RMK AO2 T11791209
Loading
Personal Weather Stations






























Interactive Weather Map New forecast layout! Learn more

10-Day Weather Forecast

Advertisements
Track Severe Weather on mobile